Time;durP1;ratioP1;P1;durP2;ratioP2;P2;SDS_P1;SDS_P2;PMS_P1;PMS_P2;Temp;Humidity;BMP_temperature;BMP_pressure;BME280_temperature;BME280_humidity;BME280_pressure;Samples;Min_cycle;Max_cycle;Signal;HPM_P1;HPM_P2
2022/04/27 00:00:16;;;;;;;24.90;17.33;;;10.90;99.90;;;;;;5000587;28;20437;-72
2022/04/27 00:02:42;;;;;;;27.03;17.37;;;10.90;99.90;;;;;;5006008;28;20268;-72
2022/04/27 00:05:09;;;;;;;24.47;15.80;;;10.90;99.90;;;;;;5006422;28;21971;-71
2022/04/27 00:07:34;;;;;;;22.60;15.90;;;10.90;99.90;;;;;;5006317;28;20205;-71
2022/04/27 00:10:00;;;;;;;24.03;15.83;;;10.80;99.90;;;;;;4998317;28;20429;-71
2022/04/27 00:12:25;;;;;;;23.13;15.77;;;10.80;99.90;;;;;;5006996;28;20261;-70
2022/04/27 00:14:51;;;;;;;20.67;14.97;;;10.80;99.90;;;;;;5006362;28;20182;-71
2022/04/27 00:17:17;;;;;;;23.53;16.97;;;10.80;99.90;;;;;;5006639;28;20186;-71
2022/04/27 00:19:42;;;;;;;21.77;15.50;;;10.80;99.90;;;;;;5005954;28;20683;-71
2022/04/27 00:22:08;;;;;;;21.93;15.90;;;10.80;99.90;;;;;;5005852;28;20277;-71
2022/04/27 00:24:33;;;;;;;20.80;15.73;;;10.80;99.90;;;;;;5005841;28;20190;-71
2022/04/27 00:26:59;;;;;;;25.23;16.53;;;10.80;99.90;;;;;;5007351;28;20275;-71
2022/04/27 00:29:25;;;;;;;22.73;15.90;;;10.70;99.90;;;;;;5004896;28;20601;-71
2022/04/27 00:31:50;;;;;;;22.60;15.80;;;10.70;99.90;;;;;;5006094;28;20174;-71
2022/04/27 00:34:16;;;;;;;21.13;15.50;;;10.70;99.90;;;;;;5005615;28;20230;-72
2022/04/27 00:36:42;;;;;;;23.10;15.80;;;10.70;99.90;;;;;;5004809;28;20284;-71
2022/04/27 00:39:07;;;;;;;21.40;15.60;;;10.70;99.90;;;;;;5006150;28;20189;-72
2022/04/27 00:41:33;;;;;;;20.17;14.90;;;10.70;99.90;;;;;;5006984;28;20252;-71
2022/04/27 00:43:58;;;;;;;22.20;15.60;;;10.70;99.90;;;;;;5006034;28;20553;-72
2022/04/27 00:46:24;;;;;;;24.27;16.40;;;10.60;99.90;;;;;;5006049;28;20175;-71
2022/04/27 00:48:49;;;;;;;22.33;14.80;;;10.60;99.90;;;;;;4999459;28;20186;-71
2022/04/27 00:51:17;;;;;;;19.70;14.27;;;10.60;99.90;;;;;;5003331;28;20209;-71
2022/04/27 00:53:43;;;;;;;19.80;14.93;;;10.50;99.90;;;;;;5008822;28;20210;-71
2022/04/27 00:56:10;;;;;;;27.43;15.80;;;10.50;99.90;;;;;;5010735;28;20763;-70
2022/04/27 00:58:36;;;;;;;21.63;14.50;;;10.50;99.90;;;;;;5010330;28;20456;-71
2022/04/27 01:01:01;;;;;;;18.80;13.77;;;10.50;99.90;;;;;;5009982;28;20449;-71
2022/04/27 01:03:27;;;;;;;21.03;14.77;;;10.50;99.90;;;;;;5010037;28;20478;-71
2022/04/27 01:05:53;;;;;;;19.43;13.73;;;10.50;99.90;;;;;;5007317;28;20201;-71
2022/04/27 01:08:22;;;;;;;17.30;12.90;;;10.60;99.90;;;;;;5008675;28;20587;-72
2022/04/27 01:10:49;;;;;;;19.33;13.20;;;10.60;99.90;;;;;;5010497;28;20520;-70
2022/04/27 01:13:16;;;;;;;17.50;13.20;;;10.60;99.90;;;;;;5009798;28;20499;-72
2022/04/27 01:15:42;;;;;;;24.33;14.17;;;10.60;99.90;;;;;;5009012;28;20429;-71
2022/04/27 01:18:09;;;;;;;18.57;13.77;;;10.70;99.90;;;;;;5008479;28;21047;-71
2022/04/27 01:20:44;;;;;;;20.07;14.10;;;10.70;99.90;;;;;;5009731;28;20174;-71
2022/04/27 01:23:13;;;;;;;18.13;12.80;;;10.60;99.90;;;;;;5005500;28;20488;-72
2022/04/27 01:25:56;;;;;;;16.60;13.50;;;10.50;99.90;;;;;;5009624;28;20774;-71
2022/04/27 01:28:24;;;;;;;26.57;14.20;;;10.50;99.90;;;;;;5005197;28;20441;-71
2022/04/27 01:31:15;;;;;;;18.30;13.93;;;10.60;99.90;;;;;;5008933;28;20519;-71
2022/04/27 01:33:41;;;;;;;18.60;13.50;;;10.60;99.90;;;;;;5004169;28;20498;-72
2022/04/27 01:36:09;;;;;;;17.10;13.07;;;10.50;99.90;;;;;;5008365;28;20534;-72
2022/04/27 01:38:39;;;;;;;17.90;13.70;;;10.60;99.90;;;;;;5009827;28;20174;-72
2022/04/27 01:41:05;;;;;;;18.13;13.37;;;10.60;99.90;;;;;;5009055;28;20492;-71
2022/04/27 01:43:31;;;;;;;18.77;14.23;;;10.60;99.90;;;;;;5008370;28;20441;-72
2022/04/27 01:45:57;;;;;;;17.10;13.07;;;10.60;99.90;;;;;;5006446;28;20437;-71
2022/04/27 01:48:23;;;;;;;15.70;12.27;;;10.60;99.90;;;;;;5007930;28;20433;-72
2022/04/27 01:50:49;;;;;;;18.00;14.20;;;10.60;99.90;;;;;;5008732;28;20202;-71
2022/04/27 01:55:59;;;;;;;17.37;12.67;;;10.40;99.90;;;;;;5009817;28;20559;-72
2022/04/27 01:58:24;;;;;;;21.30;13.73;;;10.60;99.90;;;;;;5003420;28;20521;-72
2022/04/27 02:00:51;;;;;;;15.10;12.50;;;10.60;99.90;;;;;;5007436;28;20297;-71
2022/04/27 02:03:21;;;;;;;18.80;13.37;;;10.60;99.90;;;;;;5007647;28;20213;-71
2022/04/27 02:05:48;;;;;;;16.00;12.57;;;10.60;99.90;;;;;;5009540;28;20401;-71
2022/04/27 02:08:14;;;;;;;15.53;12.70;;;10.60;99.90;;;;;;5007109;28;20422;-72
2022/04/27 02:10:40;;;;;;;17.90;12.97;;;10.60;99.90;;;;;;5008126;28;20454;-72
2022/04/27 02:13:07;;;;;;;17.73;13.23;;;10.70;99.90;;;;;;5007934;28;20229;-72
2022/04/27 02:15:33;;;;;;;18.50;13.20;;;10.70;99.90;;;;;;5006678;28;20638;-71
2022/04/27 02:18:00;;;;;;;17.67;13.13;;;10.70;99.90;;;;;;5007785;28;20983;-71
2022/04/27 02:20:26;;;;;;;18.37;13.40;;;10.70;99.90;;;;;;5008144;28;20425;-71
2022/04/27 02:22:52;;;;;;;18.37;13.80;;;10.70;99.90;;;;;;5008878;28;20628;-72
2022/04/27 02:25:22;;;;;;;17.20;12.70;;;10.60;99.90;;;;;;5008089;28;20840;-71
2022/04/27 02:27:49;;;;;;;17.33;12.73;;;10.60;99.90;;;;;;5006998;28;20186;-72
2022/04/27 02:30:15;;;;;;;18.90;14.30;;;10.50;99.90;;;;;;5007583;28;20433;-71
2022/04/27 02:32:41;;;;;;;19.77;14.30;;;10.50;99.90;;;;;;5007208;28;20448;-72
2022/04/27 02:35:07;;;;;;;19.67;13.50;;;10.40;99.90;;;;;;5008351;28;20433;-71
2022/04/27 02:37:33;;;;;;;18.30;13.60;;;10.30;99.90;;;;;;5006349;28;20505;-72
2022/04/27 02:39:59;;;;;;;18.90;13.23;;;10.20;99.90;;;;;;5007629;28;20954;-71
2022/04/27 02:42:26;;;;;;;21.13;14.07;;;10.20;99.90;;;;;;5006798;28;20499;-72
2022/04/27 02:44:52;;;;;;;21.80;14.30;;;10.20;99.90;;;;;;5005574;28;20572;-71
2022/04/27 02:47:18;;;;;;;17.47;13.67;;;10.20;99.90;;;;;;5003995;28;20621;-71
2022/04/27 02:52:29;;;;;;;17.13;12.90;;;10.10;99.90;;;;;;5006930;28;20837;-71
2022/04/27 02:54:54;;;;;;;19.70;14.00;;;10.10;99.90;;;;;;5007162;28;20437;-71
2022/04/27 02:57:21;;;;;;;19.50;14.30;;;10.00;99.90;;;;;;5008202;28;20178;-71
2022/04/27 02:59:47;;;;;;;18.23;14.33;;;10.00;99.90;;;;;;5006807;28;20178;-71
2022/04/27 03:02:12;;;;;;;29.10;15.33;;;10.00;99.90;;;;;;5007260;28;20502;-72
2022/04/27 03:04:38;;;;;;;19.13;14.23;;;10.00;99.90;;;;;;5008114;28;20324;-71
2022/04/27 03:07:04;;;;;;;20.43;14.97;;;9.90;99.90;;;;;;5007838;28;20178;-71
2022/04/27 03:09:29;;;;;;;21.10;15.40;;;9.90;99.90;;;;;;5008366;28;20304;-71
2022/04/27 03:11:56;;;;;;;19.47;13.47;;;9.80;99.90;;;;;;5007258;28;20868;-71
2022/04/27 03:14:22;;;;;;;20.33;14.63;;;9.70;99.90;;;;;;5008080;28;20301;-71
2022/04/27 03:16:48;;;;;;;21.63;15.07;;;9.70;99.90;;;;;;5005502;28;20654;-72
2022/04/27 03:19:14;;;;;;;22.80;14.87;;;9.70;99.90;;;;;;5008289;28;20254;-70
2022/04/27 03:21:40;;;;;;;18.60;14.53;;;9.70;99.90;;;;;;5012363;28;20479;-71
2022/04/27 03:24:06;;;;;;;19.10;13.63;;;9.80;99.90;;;;;;5006355;28;20448;-71
2022/04/27 03:26:32;;;;;;;21.20;15.13;;;10.00;99.90;;;;;;5006370;28;20281;-71
2022/04/27 03:28:58;;;;;;;22.97;15.17;;;9.90;99.90;;;;;;5006778;28;20170;-71
2022/04/27 03:31:24;;;;;;;19.17;13.97;;;9.90;99.90;;;;;;5005110;28;20186;-71
2022/04/27 03:33:49;;;;;;;20.00;13.90;;;9.90;99.90;;;;;;5006306;28;20453;-70
2022/04/27 03:36:15;;;;;;;20.47;13.67;;;9.90;99.90;;;;;;5007194;28;21119;-71
2022/04/27 03:38:43;;;;;;;19.63;14.60;;;9.80;99.90;;;;;;5006836;28;20186;-71
2022/04/27 03:41:09;;;;;;;22.23;15.33;;;9.80;99.90;;;;;;5005296;28;20312;-71
2022/04/27 03:43:36;;;;;;;20.20;13.73;;;9.80;99.90;;;;;;5007345;28;20445;-71
2022/04/27 03:46:02;;;;;;;23.50;15.87;;;9.70;99.90;;;;;;5006658;28;20483;-71
2022/04/27 03:48:27;;;;;;;22.07;14.40;;;9.80;99.90;;;;;;5006432;28;20409;-71
2022/04/27 03:50:53;;;;;;;23.27;15.57;;;9.80;99.90;;;;;;5014115;28;20196;-71
2022/04/27 03:53:18;;;;;;;21.87;14.93;;;9.80;99.90;;;;;;5005022;28;20329;-71
2022/04/27 03:55:44;;;;;;;22.87;15.40;;;9.80;99.90;;;;;;5005699;28;20170;-71
2022/04/27 03:58:10;;;;;;;24.17;15.57;;;9.80;99.90;;;;;;5002065;28;20187;-71
2022/04/27 04:00:35;;;;;;;22.23;15.63;;;9.80;99.90;;;;;;5007232;28;20213;-70
2022/04/27 04:03:04;;;;;;;21.70;15.37;;;9.80;99.90;;;;;;5006679;28;20233;-71
2022/04/27 04:05:29;;;;;;;20.97;15.80;;;9.70;99.90;;;;;;5007974;28;20190;-72
2022/04/27 04:07:56;;;;;;;24.07;15.80;;;9.70;99.90;;;;;;5006706;28;20437;-71
2022/04/27 04:10:22;;;;;;;21.60;15.63;;;9.70;99.90;;;;;;5006991;28;20174;-71
2022/04/27 04:12:48;;;;;;;24.00;16.20;;;9.60;99.90;;;;;;5006921;28;20448;-72
2022/04/27 04:15:14;;;;;;;22.63;15.63;;;9.50;99.90;;;;;;5006510;28;20182;-71
2022/04/27 04:17:46;;;;;;;22.93;15.37;;;9.40;99.90;;;;;;5005179;28;20190;-71
2022/04/27 04:20:14;;;;;;;24.47;16.03;;;9.40;99.90;;;;;;5008690;28;20437;-72
2022/04/27 04:22:41;;;;;;;23.80;15.43;;;9.30;99.90;;;;;;5006981;28;20773;-72
2022/04/27 04:30:35;;;;;;;25.67;15.63;;;9.20;99.90;;;;;;5010663;28;20498;-72
2022/04/27 04:33:01;;;;;;;28.23;16.37;;;9.20;99.90;;;;;;5010702;28;20452;-71
2022/04/27 04:35:26;;;;;;;23.03;15.53;;;9.10;99.90;;;;;;5008656;28;20206;-71
2022/04/27 04:37:53;;;;;;;25.40;16.67;;;9.10;99.90;;;;;;5010030;28;20167;-72
2022/04/27 04:40:18;;;;;;;22.17;15.73;;;9.10;99.90;;;;;;5009128;28;20175;-71
2022/04/27 04:42:44;;;;;;;24.37;16.00;;;9.10;99.90;;;;;;5007302;28;20457;-71
2022/04/27 04:45:09;;;;;;;23.97;15.67;;;9.10;99.90;;;;;;5009300;28;20171;-72
2022/04/27 04:47:35;;;;;;;27.40;17.20;;;9.10;99.90;;;;;;5007454;28;20270;-70
2022/04/27 04:50:00;;;;;;;23.60;16.10;;;9.10;99.90;;;;;;5008561;28;20256;-71
2022/04/27 04:52:27;;;;;;;23.27;15.70;;;9.10;99.90;;;;;;5007338;28;20378;-71
2022/04/27 04:54:52;;;;;;;28.73;16.90;;;9.10;99.90;;;;;;5009994;28;20345;-72
2022/04/27 04:57:18;;;;;;;26.97;17.20;;;9.10;99.90;;;;;;5007556;28;20990;-71
2022/04/27 04:59:43;;;;;;;24.50;16.40;;;9.20;99.90;;;;;;5010904;28;20559;-71
2022/04/27 05:02:09;;;;;;;24.77;16.00;;;9.20;99.90;;;;;;5008775;28;20206;-71
2022/04/27 05:04:34;;;;;;;26.40;18.20;;;9.30;99.90;;;;;;5009652;28;20221;-71
2022/04/27 05:07:00;;;;;;;26.43;16.73;;;9.30;99.90;;;;;;5008831;28;20776;-71
2022/04/27 05:09:26;;;;;;;28.13;17.97;;;9.20;99.90;;;;;;5009145;28;20185;-72
2022/04/27 05:11:51;;;;;;;25.33;17.73;;;9.20;99.90;;;;;;5008670;28;20197;-71
2022/04/27 05:14:17;;;;;;;25.13;16.97;;;9.20;99.90;;;;;;5007395;28;20210;-71
2022/04/27 05:16:42;;;;;;;29.60;17.30;;;9.20;99.90;;;;;;5006112;28;20179;-71
2022/04/27 05:19:07;;;;;;;30.00;17.90;;;9.20;99.90;;;;;;5008016;28;20257;-71
2022/04/27 05:21:33;;;;;;;32.13;18.07;;;9.30;99.90;;;;;;5007267;28;20205;-71
2022/04/27 05:23:59;;;;;;;26.10;17.77;;;9.30;99.90;;;;;;5031488;28;20195;-71
2022/04/27 05:26:24;;;;;;;27.07;16.97;;;9.30;99.90;;;;;;5003804;28;20221;-72
2022/04/27 05:34:19;;;;;;;25.67;17.90;;;9.50;99.90;;;;;;5104302;27;20578;-71
2022/04/27 05:36:45;;;;;;;28.83;17.63;;;9.60;99.90;;;;;;5083778;28;20422;-70
2022/04/27 05:39:10;;;;;;;28.07;17.93;;;9.70;99.90;;;;;;5084460;28;20264;-70
2022/04/27 05:41:36;;;;;;;27.20;17.53;;;9.70;99.90;;;;;;5083458;28;20200;-70
2022/04/27 05:44:02;;;;;;;25.13;17.47;;;9.80;99.90;;;;;;5082970;28;20203;-70
2022/04/27 05:46:28;;;;;;;26.97;18.47;;;9.90;99.90;;;;;;5083500;28;20235;-70
2022/04/27 05:48:54;;;;;;;31.70;17.57;;;9.90;99.90;;;;;;5081775;28;20504;-70
2022/04/27 05:51:19;;;;;;;35.40;17.80;;;10.00;99.90;;;;;;5082778;28;20271;-71
2022/04/27 05:53:45;;;;;;;26.20;17.80;;;10.00;99.90;;;;;;5083610;28;20273;-71
2022/04/27 05:56:12;;;;;;;26.40;17.70;;;10.00;99.90;;;;;;5083434;28;20175;-75
2022/04/27 05:58:38;;;;;;;29.33;18.30;;;10.10;99.90;;;;;;5076385;28;20211;-71
2022/04/27 06:01:04;;;;;;;27.33;17.27;;;10.20;99.90;;;;;;5081968;28;20468;-71
2022/04/27 06:03:30;;;;;;;22.37;16.43;;;10.40;99.90;;;;;;5084013;28;20196;-71
2022/04/27 06:05:55;;;;;;;24.03;15.97;;;10.40;99.90;;;;;;5082718;28;20430;-70
2022/04/27 06:08:21;;;;;;;25.40;16.73;;;10.50;99.90;;;;;;5083496;28;20194;-71
2022/04/27 06:10:46;;;;;;;21.23;16.20;;;10.60;99.90;;;;;;5083045;28;20191;-70
2022/04/27 06:13:13;;;;;;;22.97;16.03;;;10.60;99.90;;;;;;5082348;28;20686;-71
2022/04/27 06:15:39;;;;;;;20.07;15.60;;;10.70;99.90;;;;;;5082165;28;20187;-71
2022/04/27 06:18:05;;;;;;;26.50;18.20;;;10.90;99.90;;;;;;5082435;28;20797;-70
2022/04/27 06:20:31;;;;;;;22.03;16.40;;;11.00;99.90;;;;;;5082808;28;20434;-71
2022/04/27 06:22:57;;;;;;;23.77;16.27;;;11.20;99.90;;;;;;5080665;28;20200;-73
2022/04/27 06:25:25;;;;;;;21.23;15.73;;;11.20;99.90;;;;;;5094663;28;20191;-71
2022/04/27 06:27:51;;;;;;;18.10;15.03;;;11.30;99.90;;;;;;5095240;28;20457;-72
2022/04/27 06:30:16;;;;;;;19.90;15.17;;;11.50;99.90;;;;;;5080380;28;20461;-73
2022/04/27 06:32:42;;;;;;;20.50;14.10;;;11.60;99.90;;;;;;5080289;28;20254;-72
2022/04/27 06:35:09;;;;;;;18.27;14.23;;;11.80;99.90;;;;;;5083662;28;20172;-72
2022/04/27 06:37:35;;;;;;;18.00;13.00;;;11.90;99.90;;;;;;5081436;28;20650;-73
2022/04/27 06:40:00;;;;;;;19.23;14.13;;;12.10;99.90;;;;;;5082458;28;20417;-71
2022/04/27 06:42:26;;;;;;;14.93;11.77;;;12.30;99.90;;;;;;5081412;28;20176;-72
2022/04/27 06:44:51;;;;;;;15.93;11.47;;;12.40;99.90;;;;;;5071207;28;20196;-71
2022/04/27 06:47:17;;;;;;;14.90;12.13;;;12.40;99.90;;;;;;5065812;28;20245;-72
2022/04/27 06:49:43;;;;;;;13.93;10.90;;;12.50;99.90;;;;;;5069126;28;20181;-71
2022/04/27 06:52:08;;;;;;;15.37;11.33;;;12.70;99.90;;;;;;5068688;28;20643;-71
2022/04/27 06:54:34;;;;;;;13.50;10.63;;;13.00;99.90;;;;;;5066312;28;20299;-71
2022/04/27 06:56:59;;;;;;;14.03;10.90;;;13.20;99.90;;;;;;5064024;28;20176;-71
2022/04/27 06:59:25;;;;;;;13.40;11.07;;;13.50;99.90;;;;;;5067847;28;20597;-72
2022/04/27 07:01:53;;;;;;;21.10;10.37;;;13.60;99.90;;;;;;5069328;28;20241;-72
2022/04/27 07:04:19;;;;;;;16.07;11.00;;;13.70;99.90;;;;;;5069471;28;20210;-72
2022/04/27 07:06:45;;;;;;;12.57;10.20;;;13.90;99.90;;;;;;5070467;28;20419;-72
2022/04/27 07:09:11;;;;;;;13.20;10.30;;;14.00;99.90;;;;;;5069508;28;20442;-72
2022/04/27 07:11:37;;;;;;;12.20;10.60;;;14.30;99.90;;;;;;5069932;28;20241;-72
2022/04/27 07:14:03;;;;;;;13.00;10.57;;;14.60;99.90;;;;;;5068958;28;20204;-72
2022/04/27 07:16:29;;;;;;;12.30;9.93;;;14.90;99.90;;;;;;5085985;28;20496;-72
2022/04/27 07:18:55;;;;;;;12.90;10.23;;;15.10;99.90;;;;;;5068818;28;20727;-72
2022/04/27 07:21:21;;;;;;;9.90;8.53;;;15.00;99.90;;;;;;5069352;28;20177;-71
2022/04/27 07:23:46;;;;;;;9.50;8.43;;;15.20;99.90;;;;;;5067522;28;20208;-72
2022/04/27 07:26:12;;;;;;;9.63;7.60;;;15.30;99.90;;;;;;5066070;28;20189;-71
2022/04/27 07:28:38;;;;;;;9.17;7.87;;;15.40;99.90;;;;;;5069628;28;20270;-72
2022/04/27 07:31:04;;;;;;;11.60;8.40;;;15.20;99.90;;;;;;5067375;28;20184;-71
2022/04/27 07:33:30;;;;;;;10.60;8.33;;;15.30;99.90;;;;;;5067221;28;20470;-72
2022/04/27 07:35:56;;;;;;;10.23;7.80;;;15.60;99.90;;;;;;5068432;28;20427;-71
2022/04/27 07:38:21;;;;;;;9.83;8.20;;;15.90;99.90;;;;;;5068805;28;20673;-71
2022/04/27 07:40:47;;;;;;;10.67;8.90;;;16.10;99.90;;;;;;5069796;28;20260;-71
2022/04/27 07:43:12;;;;;;;9.43;8.50;;;16.30;99.90;;;;;;5068355;28;20368;-72
2022/04/27 07:45:39;;;;;;;10.23;8.10;;;16.70;99.90;;;;;;5066078;28;20263;-71
2022/04/27 07:48:04;;;;;;;9.40;8.40;;;17.10;99.90;;;;;;5067285;28;20200;-72
2022/04/27 07:50:30;;;;;;;10.53;9.27;;;17.30;99.90;;;;;;5068533;28;20488;-71
2022/04/27 07:52:57;;;;;;;10.73;9.50;;;17.40;99.90;;;;;;5067516;28;20208;-71
2022/04/27 07:55:22;;;;;;;13.27;10.50;;;17.50;99.90;;;;;;5069101;28;20571;-71
2022/04/27 07:57:49;;;;;;;12.73;10.40;;;17.40;99.90;;;;;;5068201;28;20476;-72
2022/04/27 08:00:15;;;;;;;14.13;10.93;;;17.80;99.90;;;;;;5066756;28;20172;-72
2022/04/27 08:02:41;;;;;;;14.60;11.90;;;18.40;99.90;;;;;;5067794;28;21011;-72
2022/04/27 08:05:08;;;;;;;13.40;11.10;;;18.80;99.90;;;;;;5068353;28;20904;-73
2022/04/27 08:07:43;;;;;;;13.57;11.33;;;19.60;99.90;;;;;;5065918;28;20431;-72
2022/04/27 08:10:20;;;;;;;13.40;12.00;;;20.40;99.90;;;;;;5062714;28;21822;-73
2022/04/27 08:12:48;;;;;;;13.50;10.80;;;21.30;99.90;;;;;;5064942;28;20480;-72
2022/04/27 08:15:15;;;;;;;12.37;10.73;;;22.30;99.90;;;;;;5065979;28;20484;-72
2022/04/27 08:17:57;;;;;;;14.90;13.17;;;23.20;96.80;;;;;;5067771;28;20811;-72
2022/04/27 08:23:16;;;;;;;19.47;15.77;;;21.60;97.50;;;;;;5068637;28;20509;-72
2022/04/27 08:25:43;;;;;;;19.30;14.47;;;20.20;99.90;;;;;;5068100;28;20441;-72
2022/04/27 08:28:09;;;;;;;16.10;14.20;;;19.70;99.90;;;;;;5068231;28;20454;-72
2022/04/27 08:30:37;;;;;;;18.37;14.90;;;19.20;99.90;;;;;;5067187;28;20445;-72
2022/04/27 08:33:03;;;;;;;17.37;14.53;;;18.80;99.90;;;;;;5064456;28;21020;-70
2022/04/27 08:35:29;;;;;;;17.43;13.47;;;19.00;99.90;;;;;;5068198;28;20476;-71
2022/04/27 08:37:55;;;;;;;17.07;13.20;;;19.80;99.90;;;;;;5064429;28;20421;-71
2022/04/27 08:40:21;;;;;;;14.80;12.47;;;19.70;99.90;;;;;;5067524;28;20426;-71
2022/04/27 08:42:50;;;;;;;20.10;14.73;;;19.30;99.90;;;;;;5067733;28;20246;-70
2022/04/27 08:45:17;;;;;;;19.93;15.10;;;19.20;99.90;;;;;;5076667;28;20183;-71
2022/04/27 08:47:46;;;;;;;20.20;15.30;;;19.20;99.90;;;;;;5053407;28;20741;-71
2022/04/27 08:50:30;;;;;;;17.73;14.87;;;20.50;99.90;;;;;;5065490;28;20435;-71
2022/04/27 08:52:56;;;;;;;18.33;14.20;;;22.00;98.60;;;;;;5066895;28;20491;-71
2022/04/27 08:55:22;;;;;;;14.87;12.67;;;23.00;94.10;;;;;;5067787;28;20444;-71
2022/04/27 08:57:48;;;;;;;14.00;12.50;;;23.10;92.20;;;;;;5068086;28;20164;-72
2022/04/27 09:00:22;;;;;;;14.50;12.37;;;22.70;93.20;;;;;;5065666;28;20433;-71
2022/04/27 09:02:52;;;;;;;17.80;14.97;;;22.50;93.60;;;;;;5063838;28;20175;-71
2022/04/27 09:05:22;;;;;;;15.27;13.60;;;22.60;93.20;;;;;;5068133;28;20983;-71
2022/04/27 09:07:56;;;;;;;19.00;13.60;;;22.70;93.00;;;;;;5065774;28;20532;-71
2022/04/27 09:10:24;;;;;;;17.03;14.23;;;22.30;93.80;;;;;;5068227;28;20430;-74
2022/04/27 09:12:55;;;;;;;15.73;13.03;;;21.70;93.60;;;;;;5068325;28;20469;-71
2022/04/27 09:15:26;;;;;;;14.73;13.17;;;22.10;93.60;;;;;;5064375;28;20948;-71
2022/04/27 09:20:47;;;;;;;16.20;13.40;;;22.80;87.40;;;;;;5062613;28;20484;-70
2022/04/27 09:23:23;;;;;;;14.37;12.30;;;22.60;87.70;;;;;;5063910;28;20426;-72
2022/04/27 09:25:55;;;;;;;13.17;11.83;;;22.60;82.80;;;;;;5062815;28;20800;-73
2022/04/27 09:28:27;;;;;;;12.70;11.30;;;23.20;79.70;;;;;;5065891;28;20434;-73
2022/04/27 09:30:52;;;;;;;17.43;12.77;;;23.30;86.80;;;;;;5063366;28;20525;-73
2022/04/27 09:33:36;;;;;;;14.40;12.90;;;23.90;82.10;;;;;;5065797;28;20553;-73
2022/04/27 09:36:18;;;;;;;14.27;12.47;;;24.90;74.40;;;;;;5063472;28;20174;-74
2022/04/27 09:38:44;;;;;;;13.77;12.37;;;25.40;69.70;;;;;;5067666;28;20434;-73
2022/04/27 09:41:09;;;;;;;13.33;11.93;;;25.80;67.20;;;;;;5067904;28;20418;-73
2022/04/27 09:43:48;;;;;;;14.00;12.00;;;26.60;62.30;;;;;;5067556;28;20565;-73
2022/04/27 09:46:24;;;;;;;12.23;10.40;;;28.20;52.80;;;;;;5065718;28;20179;-74
2022/04/27 09:49:02;;;;;;;12.97;11.50;;;29.70;53.60;;;;;;5064906;28;20200;-74
2022/04/27 09:51:28;;;;;;;13.00;10.90;;;29.60;53.50;;;;;;5064122;28;20231;-75
2022/04/27 09:53:56;;;;;;;13.32;11.57;;;29.60;53.50;;;;;;5064653;28;20214;-74
2022/04/27 09:56:26;;;;;;;13.00;11.60;;;30.30;44.60;;;;;;5067516;28;20265;-74
2022/04/27 09:58:54;;;;;;;12.70;11.40;;;29.80;44.00;;;;;;5060306;28;20220;-74
2022/04/27 10:01:19;;;;;;;13.50;12.10;;;28.30;52.60;;;;;;5064492;28;20184;-75
2022/04/27 10:03:48;;;;;;;16.23;13.50;;;26.10;51.30;;;;;;5067316;28;20696;-72
2022/04/27 10:06:14;;;;;;;13.13;11.73;;;24.30;56.20;;;;;;5064739;28;20176;-73
2022/04/27 10:08:40;;;;;;;12.10;10.90;;;23.10;60.00;;;;;;5067498;28;20438;-73
2022/04/27 10:11:07;;;;;;;14.63;12.23;;;22.80;68.50;;;;;;5066567;28;20406;-71
2022/04/27 10:13:33;;;;;;;14.13;12.63;;;22.50;70.30;;;;;;5060359;28;20212;-72
2022/04/27 10:15:59;;;;;;;13.83;12.37;;;22.50;74.60;;;;;;5063790;28;20482;-72
2022/04/27 10:18:25;;;;;;;14.40;12.20;;;22.40;72.70;;;;;;5062245;28;20791;-72
2022/04/27 10:20:51;;;;;;;13.53;12.10;;;22.50;75.80;;;;;;5068244;28;20187;-72
2022/04/27 10:23:27;;;;;;;13.57;12.10;;;23.20;72.80;;;;;;5069057;28;20200;-73
2022/04/27 10:26:17;;;;;;;16.90;11.47;;;23.30;67.10;;;;;;5068329;28;20489;-73
2022/04/27 10:28:50;;;;;;;14.30;11.80;;;22.90;75.40;;;;;;5069813;28;20428;-74
2022/04/27 10:31:46;;;;;;;13.43;12.03;;;22.50;74.40;;;;;;5061323;28;20418;-72
2022/04/27 10:34:18;;;;;;;14.57;12.03;;;22.10;78.20;;;;;;5066133;28;20465;-73
2022/04/27 10:36:47;;;;;;;16.30;13.37;;;21.80;73.90;;;;;;5068432;28;20442;-72
2022/04/27 10:39:13;;;;;;;14.70;12.43;;;21.40;74.50;;;;;;5069496;28;20491;-72
2022/04/27 10:41:47;;;;;;;15.90;11.80;;;21.00;80.40;;;;;;5069947;28;20809;-72
2022/04/27 10:44:13;;;;;;;14.93;13.13;;;20.80;83.10;;;;;;5070879;28;20260;-73
2022/04/27 10:46:43;;;;;;;15.93;13.30;;;20.70;83.20;;;;;;5069338;28;20438;-73
2022/04/27 10:49:25;;;;;;;14.70;13.10;;;20.50;86.40;;;;;;5068995;28;20173;-73
2022/04/27 10:52:05;;;;;;;14.07;12.30;;;20.50;88.50;;;;;;5069381;28;20491;-74
2022/04/27 10:54:33;;;;;;;16.83;11.93;;;20.80;87.50;;;;;;5068445;28;20473;-72
2022/04/27 10:57:17;;;;;;;15.27;12.10;;;23.40;78.60;;;;;;5069863;28;20444;-72
2022/04/27 10:59:43;;;;;;;15.30;12.83;;;24.90;66.80;;;;;;5068463;28;20724;-73
2022/04/27 11:02:44;;;;;;;17.70;13.40;;;26.60;53.80;;;;;;5069728;28;20893;-73
2022/04/27 11:05:13;;;;;;;14.30;11.97;;;27.90;52.50;;;;;;5070200;28;20422;-72
2022/04/27 11:07:48;;;;;;;14.33;12.53;;;27.70;52.30;;;;;;5068656;28;20458;-72
2022/04/27 11:10:18;;;;;;;13.60;12.20;;;27.10;51.90;;;;;;5067334;28;20840;-73
2022/04/27 11:12:49;;;;;;;14.70;13.10;;;26.00;51.20;;;;;;5066738;28;20465;-73
2022/04/27 11:15:18;;;;;;;14.03;12.63;;;24.80;50.50;;;;;;5064740;28;20457;-72
2022/04/27 11:17:44;;;;;;;15.27;11.93;;;23.60;59.20;;;;;;5065247;28;20422;-72
2022/04/27 11:20:23;;;;;;;14.30;11.70;;;22.80;64.90;;;;;;5070088;28;20425;-73
2022/04/27 11:22:48;;;;;;;14.20;11.80;;;22.10;72.40;;;;;;5068763;28;20418;-71
2022/04/27 11:25:29;;;;;;;13.10;11.60;;;21.60;77.60;;;;;;5082016;28;20454;-73
2022/04/27 11:27:55;;;;;;;13.20;11.80;;;21.20;78.30;;;;;;5068924;28;20272;-71
2022/04/27 11:30:21;;;;;;;15.03;12.37;;;21.10;77.90;;;;;;5066570;28;20438;-72
2022/04/27 11:32:48;;;;;;;15.70;13.33;;;20.70;81.70;;;;;;5065838;28;20458;-72
2022/04/27 11:35:15;;;;;;;16.50;13.80;;;20.70;83.20;;;;;;5069368;28;20450;-72
2022/04/27 11:37:41;;;;;;;15.13;13.13;;;20.60;83.10;;;;;;5062152;28;20422;-72
2022/04/27 11:40:14;;;;;;;20.40;13.43;;;20.40;84.60;;;;;;5066914;28;20422;-72
2022/04/27 11:42:44;;;;;;;14.90;13.30;;;20.60;81.90;;;;;;5064985;28;20191;-72
2022/04/27 11:45:12;;;;;;;17.50;13.70;;;20.70;84.70;;;;;;5068821;28;20442;-72
2022/04/27 11:47:37;;;;;;;14.90;12.30;;;20.90;83.70;;;;;;5068062;28;20425;-71
2022/04/27 11:50:04;;;;;;;14.33;12.80;;;21.00;82.50;;;;;;5069121;28;20759;-71
2022/04/27 11:52:31;;;;;;;14.67;12.60;;;21.20;80.90;;;;;;5068150;28;20218;-72
2022/04/27 11:55:01;;;;;;;13.80;12.10;;;21.20;83.10;;;;;;5066738;28;20834;-71
2022/04/27 11:57:27;;;;;;;13.57;11.93;;;21.40;81.10;;;;;;5068192;28;20435;-72
2022/04/27 11:59:57;;;;;;;14.53;12.00;;;21.60;81.20;;;;;;5069333;28;20919;-72
2022/04/27 12:02:24;;;;;;;15.13;12.30;;;21.70;79.20;;;;;;5068180;28;20677;-70
2022/04/27 12:04:53;;;;;;;13.87;12.37;;;21.80;76.60;;;;;;5069729;28;20423;-70
2022/04/27 12:07:21;;;;;;;13.20;11.80;;;22.00;73.70;;;;;;5069623;28;20425;-70
2022/04/27 12:10:00;;;;;;;13.93;12.43;;;22.70;71.40;;;;;;5066102;28;20995;-71
2022/04/27 12:12:27;;;;;;;13.60;11.23;;;23.40;66.90;;;;;;5065448;28;20437;-71
2022/04/27 12:14:54;;;;;;;14.30;11.60;;;24.40;60.80;;;;;;5066582;28;20811;-71
2022/04/27 12:17:42;;;;;;;14.93;10.67;;;26.70;51.80;;;;;;5068676;28;20778;-72
2022/04/27 12:20:09;;;;;;;11.07;9.50;;;29.70;42.20;;;;;;5066310;28;20422;-72
2022/04/27 12:22:35;;;;;;;10.85;9.75;;;32.10;32.60;;;;;;5068211;28;20418;-72
2022/04/27 12:25:01;;;;;;;9.32;8.43;;;33.80;26.10;;;;;;5066614;28;20187;-72
2022/04/27 12:27:28;;;;;;;9.18;7.90;;;34.20;21.10;;;;;;5066682;28;20347;-72
2022/04/27 12:30:07;;;;;;;10.50;8.18;;;34.80;17.50;;;;;;5068283;28;20593;-73
2022/04/27 12:32:33;;;;;;;9.45;8.60;;;36.00;11.70;;;;;;5066117;28;20204;-72
2022/04/27 12:37:54;;;;;;;7.05;6.35;;;35.40;4.70;;;;;;5067998;28;20246;-73
2022/04/27 12:40:20;;;;;;;9.05;6.13;;;36.10;3.20;;;;;;5066632;28;20171;-73
2022/04/27 12:43:04;;;;;;;6.80;6.15;;;36.10;1.00;;;;;;5067817;28;20179;-73
2022/04/27 12:45:30;;;;;;;7.38;6.68;;;34.80;1.00;;;;;;5066341;28;20654;-72
2022/04/27 12:47:55;;;;;;;7.22;6.07;;;32.60;7.30;;;;;;5065371;28;20176;-72
2022/04/27 12:50:21;;;;;;;7.20;6.50;;;31.10;11.00;;;;;;5068506;28;20179;-73
2022/04/27 12:52:47;;;;;;;6.38;5.78;;;29.90;14.30;;;;;;5066872;28;20516;-73
2022/04/27 12:55:14;;;;;;;8.53;5.87;;;28.50;17.50;;;;;;5065829;28;20180;-73
2022/04/27 12:57:48;;;;;;;7.03;6.13;;;27.70;21.90;;;;;;5065431;28;20249;-73